Time;durP1;ratioP1;P1;durP2;ratioP2;P2;SDS_P1;SDS_P2;PMS_P1;PMS_P2;Temp;Humidity;BMP_temperature;BMP_pressure;BME280_temperature;BME280_humidity;BME280_pressure;Samples;Min_cycle;Max_cycle;Signal;HPM_P1;HPM_P2
2023/03/25 00:00:58;;;;;;;11.40;11.10;;;11.20;1.00;;;;;;5080431;28;20463;-84
2023/03/25 00:03:28;;;;;;;11.57;11.37;;;11.20;1.00;;;;;;5073405;28;20468;-84
2023/03/25 00:05:57;;;;;;;11.47;11.17;;;11.20;67.80;;;;;;5075008;28;20487;-83
2023/03/25 00:08:26;;;;;;;11.80;11.60;;;11.10;1.00;;;;;;5077731;28;20453;-83
2023/03/25 00:10:58;;;;;;;11.93;11.47;;;11.10;99.90;;;;;;5073623;28;20455;-83
2023/03/25 00:13:26;;;;;;;11.70;11.40;;;11.10;99.90;;;;;;5074897;28;20511;-84
2023/03/25 00:15:57;;;;;;;11.27;10.87;;;11.00;99.90;;;;;;5073646;28;20462;-83
2023/03/25 00:18:28;;;;;;;11.10;10.90;;;11.00;99.90;;;;;;5067818;28;20445;-83
2023/03/25 00:20:57;;;;;;;11.73;11.40;;;11.00;99.90;;;;;;5071131;28;20465;-82
2023/03/25 00:23:26;;;;;;;11.60;11.10;;;10.90;99.90;;;;;;5068784;28;21242;-83
2023/03/25 00:25:59;;;;;;;11.23;10.93;;;10.90;99.90;;;;;;5072606;28;20503;-83
2023/03/25 00:28:30;;;;;;;11.50;11.20;;;10.70;99.90;;;;;;5070878;28;21210;-84
2023/03/25 00:31:00;;;;;;;11.00;10.80;;;10.70;99.90;;;;;;5072510;28;20451;-81
2023/03/25 00:33:30;;;;;;;11.07;10.87;;;10.60;99.90;;;;;;5071701;28;20458;-81
2023/03/25 00:35:58;;;;;;;10.70;10.40;;;10.70;99.90;;;;;;5070594;28;20572;-81
2023/03/25 00:38:32;;;;;;;11.20;10.80;;;10.70;99.90;;;;;;5070006;28;20465;-82
2023/03/25 00:41:10;;;;;;;10.73;10.53;;;10.50;99.90;;;;;;5069505;28;21014;-81
2023/03/25 00:43:39;;;;;;;10.83;10.53;;;10.50;1.00;;;;;;5072994;28;20835;-84
2023/03/25 00:46:07;;;;;;;11.40;10.97;;;10.50;1.00;;;;;;5072841;28;21097;-82
2023/03/25 00:48:35;;;;;;;10.63;10.40;;;10.50;1.00;;;;;;5071880;28;20479;-83
2023/03/25 00:51:08;;;;;;;10.67;10.20;;;10.60;99.90;;;;;;5072074;28;20806;-81
2023/03/25 00:53:38;;;;;;;10.60;10.30;;;10.60;99.90;;;;;;5066039;28;20477;-83
2023/03/25 00:56:07;;;;;;;11.00;10.60;;;10.60;99.90;;;;;;5069417;28;20889;-83
2023/03/25 00:58:36;;;;;;;10.30;10.10;;;10.60;99.90;;;;;;5076725;28;20446;-85
2023/03/25 01:01:11;;;;;;;10.40;10.00;;;10.60;99.90;;;;;;5078613;28;20460;-84
2023/03/25 01:03:42;;;;;;;10.37;10.17;;;10.60;99.90;;;;;;5072695;28;20482;-82
2023/03/25 01:06:11;;;;;;;10.97;10.67;;;10.60;99.90;;;;;;5077977;28;20526;-82
2023/03/25 01:08:40;;;;;;;12.17;11.53;;;10.60;99.90;;;;;;5078433;28;20480;-81
2023/03/25 01:11:18;;;;;;;10.77;10.40;;;10.50;99.90;;;;;;5077686;28;20457;-79
2023/03/25 01:13:48;;;;;;;10.50;10.30;;;10.50;99.90;;;;;;5080972;28;20528;-84
2023/03/25 01:16:16;;;;;;;10.60;10.40;;;10.40;99.90;;;;;;5075210;28;21029;-81
2023/03/25 01:18:44;;;;;;;10.50;10.30;;;10.40;99.90;;;;;;5076347;28;20565;-81
2023/03/25 01:21:12;;;;;;;10.83;10.53;;;10.40;99.90;;;;;;5069814;28;20481;-81
2023/03/25 01:23:40;;;;;;;10.90;10.60;;;10.40;99.90;;;;;;5071690;28;20560;-82
2023/03/25 01:26:09;;;;;;;11.00;10.60;;;10.40;99.90;;;;;;5068754;28;20491;-82
2023/03/25 01:28:37;;;;;;;10.83;10.47;;;10.40;99.90;;;;;;5074983;28;21112;-80
2023/03/25 01:31:08;;;;;;;10.73;10.50;;;10.40;99.90;;;;;;5073636;28;20573;-79
2023/03/25 01:33:36;;;;;;;10.50;10.30;;;10.30;99.90;;;;;;5066218;28;20452;-79
2023/03/25 01:36:08;;;;;;;10.37;9.90;;;10.30;99.90;;;;;;5071887;28;21286;-79
2023/03/25 01:38:37;;;;;;;10.00;9.80;;;10.30;99.90;;;;;;5077110;28;21023;-82
2023/03/25 01:41:06;;;;;;;10.63;10.37;;;10.30;99.90;;;;;;5068817;28;20523;-81
2023/03/25 01:43:34;;;;;;;10.90;10.53;;;10.20;99.90;;;;;;5074298;28;20458;-82
2023/03/25 01:46:03;;;;;;;10.53;10.17;;;10.20;99.90;;;;;;5070388;28;20474;-82
2023/03/25 01:48:36;;;;;;;10.50;10.17;;;10.20;99.90;;;;;;5074952;28;20505;-83
2023/03/25 01:51:10;;;;;;;10.33;10.03;;;10.20;99.90;;;;;;5075122;28;20459;-82
2023/03/25 01:53:40;;;;;;;10.27;9.93;;;10.20;99.90;;;;;;5077993;28;20461;-81
2023/03/25 01:56:12;;;;;;;10.33;10.13;;;10.20;99.90;;;;;;5077230;28;20466;-84
2023/03/25 01:58:41;;;;;;;10.10;9.90;;;10.10;1.00;;;;;;5074969;28;21016;-85
2023/03/25 02:01:12;;;;;;;11.00;10.60;;;10.00;1.00;;;;;;5078043;28;20448;-82
2023/03/25 02:03:44;;;;;;;10.00;9.80;;;10.10;1.00;;;;;;5083495;28;21016;-84
2023/03/25 02:06:19;;;;;;;10.43;9.97;;;10.10;1.00;;;;;;5078388;28;20484;-80
2023/03/25 02:08:48;;;;;;;10.20;9.80;;;10.00;1.00;;;;;;5074143;28;20530;-81
2023/03/25 02:11:17;;;;;;;10.40;10.10;;;10.00;99.90;;;;;;5072486;28;21027;-80
2023/03/25 02:13:46;;;;;;;10.60;10.30;;;10.00;99.90;;;;;;5067522;28;20448;-80
2023/03/25 02:16:26;;;;;;;9.80;9.60;;;10.00;99.90;;;;;;5071477;28;20504;-82
2023/03/25 02:19:11;;;;;;;10.30;10.03;;;10.00;1.00;;;;;;5078757;28;20446;-81
2023/03/25 02:22:10;;;;;;;10.60;10.30;;;10.00;99.90;;;;;;5073377;28;20444;-80
2023/03/25 02:25:07;;;;;;;10.83;10.53;;;10.00;99.90;;;;;;5054612;28;21003;-84
2023/03/25 02:27:57;;;;;;;10.57;10.13;;;10.10;99.90;;;;;;5074870;28;20481;-84
2023/03/25 02:31:02;;;;;;;10.33;10.03;;;9.90;1.00;;;;;;5069578;28;20476;-82
2023/03/25 02:33:47;;;;;;;10.67;10.37;;;9.90;99.90;;;;;;5071528;28;20449;-84
2023/03/25 02:36:44;;;;;;;10.80;10.50;;;10.00;1.00;;;;;;5069481;28;20472;-83
2023/03/25 02:39:17;;;;;;;10.20;9.90;;;10.10;99.90;;;;;;5068306;28;20461;-82
2023/03/25 02:41:51;;;;;;;10.30;10.10;;;10.10;99.90;;;;;;5071573;28;20949;-80
2023/03/25 02:44:25;;;;;;;10.50;10.30;;;10.00;99.90;;;;;;5080762;28;20777;-81
2023/03/25 02:46:57;;;;;;;10.50;10.30;;;10.10;99.90;;;;;;5068445;28;20559;-84
2023/03/25 02:49:29;;;;;;;10.73;10.43;;;10.00;1.00;;;;;;5066563;28;20456;-82
2023/03/25 02:52:07;;;;;;;10.33;10.00;;;9.90;99.90;;;;;;5071348;28;20453;-81
2023/03/25 02:54:40;;;;;;;9.97;9.77;;;9.90;99.90;;;;;;5063749;28;21411;-82
2023/03/25 02:57:12;;;;;;;9.87;9.60;;;9.90;1.00;;;;;;5073153;28;20478;-80
2023/03/25 02:59:40;;;;;;;9.57;9.37;;;9.90;99.90;;;;;;5073674;28;21235;-82
2023/03/25 03:02:10;;;;;;;10.57;9.97;;;9.90;99.90;;;;;;5076579;28;20456;-82
2023/03/25 03:04:47;;;;;;;9.10;8.90;;;9.90;53.90;;;;;;5077579;28;20444;-83
2023/03/25 03:07:22;;;;;;;8.80;8.70;;;9.90;1.00;;;;;;5074498;28;20466;-83
2023/03/25 03:09:59;;;;;;;8.93;8.73;;;10.00;1.00;;;;;;5073065;28;20916;-81
2023/03/25 03:12:48;;;;;;;8.93;8.60;;;9.90;1.00;;;;;;5072081;28;22486;-82
2023/03/25 03:15:28;;;;;;;8.10;8.00;;;9.90;1.00;;;;;;5072744;28;20453;-80
2023/03/25 03:18:08;;;;;;;8.63;8.53;;;9.80;1.00;;;;;;5075724;28;20450;-81
2023/03/25 03:20:44;;;;;;;8.90;8.80;;;9.90;1.00;;;;;;5072103;28;20452;-82
2023/03/25 03:23:19;;;;;;;9.60;9.40;;;9.80;1.00;;;;;;5071184;28;20461;-82
2023/03/25 03:25:55;;;;;;;8.83;8.73;;;9.70;1.00;;;;;;5069602;28;20484;-81
2023/03/25 03:28:28;;;;;;;8.67;8.47;;;9.70;1.00;;;;;;5076256;28;21060;-82
2023/03/25 03:31:05;;;;;;;8.97;8.77;;;9.60;23.90;;;;;;5072328;28;20468;-82
2023/03/25 03:33:40;;;;;;;8.30;8.20;;;9.60;20.20;;;;;;5071371;28;20455;-82
2023/03/25 03:36:12;;;;;;;8.40;8.30;;;9.50;56.30;;;;;;5071601;28;20491;-79
2023/03/25 03:38:46;;;;;;;9.17;8.97;;;9.50;91.80;;;;;;5077191;28;20441;-83
2023/03/25 03:41:20;;;;;;;8.60;8.50;;;9.50;99.90;;;;;;5079675;28;20460;-82
2023/03/25 03:43:52;;;;;;;9.10;8.80;;;9.40;99.90;;;;;;5069666;28;20456;-82
2023/03/25 03:46:27;;;;;;;8.70;8.60;;;9.20;99.90;;;;;;5076005;28;20471;-81
2023/03/25 03:48:57;;;;;;;9.00;8.80;;;9.30;99.90;;;;;;5073075;28;20491;-83
2023/03/25 03:51:30;;;;;;;8.90;8.80;;;9.30;99.90;;;;;;5071446;28;20457;-81
2023/03/25 03:54:02;;;;;;;9.33;9.03;;;9.40;99.90;;;;;;5079642;28;20448;-78
2023/03/25 03:56:38;;;;;;;8.60;8.50;;;9.40;99.90;;;;;;5075837;28;20564;-81
2023/03/25 03:59:13;;;;;;;8.60;8.40;;;9.40;99.90;;;;;;5070307;28;20814;-83
2023/03/25 04:01:45;;;;;;;8.43;8.33;;;9.40;99.90;;;;;;5072921;28;20500;-84
2023/03/25 04:04:17;;;;;;;8.97;8.80;;;9.40;99.90;;;;;;5072696;28;20454;-83
2023/03/25 04:06:55;;;;;;;8.90;8.70;;;9.30;99.90;;;;;;5074315;28;20472;-81
2023/03/25 04:09:27;;;;;;;8.50;8.40;;;9.20;99.90;;;;;;5072748;28;20757;-78
2023/03/25 04:12:02;;;;;;;9.00;8.90;;;9.30;99.90;;;;;;5075465;28;20477;-79
2023/03/25 04:14:31;;;;;;;8.63;8.53;;;9.30;99.90;;;;;;5069617;28;20476;-84
2023/03/25 04:16:59;;;;;;;8.80;8.60;;;9.40;99.90;;;;;;5065247;28;21066;-84
2023/03/25 04:19:27;;;;;;;9.07;8.77;;;9.30;99.90;;;;;;5073297;28;20442;-84
2023/03/25 04:21:56;;;;;;;8.47;8.37;;;9.30;99.90;;;;;;5075304;28;20973;-85
2023/03/25 04:24:25;;;;;;;8.60;8.50;;;9.30;99.90;;;;;;5077994;28;20468;-81
2023/03/25 04:26:56;;;;;;;8.80;8.70;;;9.30;99.90;;;;;;5071640;28;22143;-82
2023/03/25 04:29:26;;;;;;;8.87;8.77;;;9.30;99.90;;;;;;5076549;28;20472;-83
2023/03/25 04:31:55;;;;;;;9.40;9.10;;;9.40;99.90;;;;;;5070583;28;20457;-83
2023/03/25 04:34:25;;;;;;;8.87;8.77;;;9.30;99.90;;;;;;5068336;28;20447;-80
2023/03/25 04:36:54;;;;;;;8.80;8.60;;;9.30;99.90;;;;;;5069011;28;20461;-83
2023/03/25 04:39:28;;;;;;;8.73;8.63;;;9.40;99.90;;;;;;5073987;28;20444;-81
2023/03/25 04:41:56;;;;;;;9.20;9.00;;;9.40;99.90;;;;;;5067313;28;20474;-84
2023/03/25 04:44:27;;;;;;;8.80;8.70;;;9.30;99.90;;;;;;5071581;28;20469;-82
2023/03/25 04:46:56;;;;;;;8.80;8.60;;;9.30;99.90;;;;;;5070956;28;20480;-83
2023/03/25 04:49:24;;;;;;;9.73;9.30;;;9.40;99.90;;;;;;5068674;28;20485;-83
2023/03/25 04:51:55;;;;;;;9.00;8.80;;;9.40;99.90;;;;;;5072729;28;20454;-84
2023/03/25 04:54:24;;;;;;;9.67;9.27;;;9.40;99.90;;;;;;5074289;28;20487;-82
2023/03/25 04:56:53;;;;;;;9.43;9.10;;;9.40;99.90;;;;;;5080907;28;20955;-83
2023/03/25 04:59:22;;;;;;;9.30;9.00;;;9.40;99.90;;;;;;5080642;28;20551;-82
2023/03/25 05:01:51;;;;;;;9.20;9.00;;;9.40;99.90;;;;;;5071154;28;20478;-80
2023/03/25 05:04:20;;;;;;;9.10;8.80;;;9.40;99.90;;;;;;5071343;28;20489;-82
2023/03/25 05:06:50;;;;;;;9.63;9.33;;;9.40;65.90;;;;;;5074122;28;20838;-83
2023/03/25 05:09:20;;;;;;;9.10;8.80;;;9.50;39.00;;;;;;5074073;28;20519;-78
2023/03/25 05:11:50;;;;;;;9.30;9.00;;;9.40;53.20;;;;;;5078176;28;20468;-83
2023/03/25 05:14:20;;;;;;;9.33;9.03;;;9.40;27.80;;;;;;5080026;28;20449;-81
2023/03/25 05:16:48;;;;;;;9.53;8.87;;;9.40;37.90;;;;;;5081661;28;20475;-84
2023/03/25 05:19:19;;;;;;;9.10;8.90;;;9.40;77.60;;;;;;5072250;28;20976;-84
2023/03/25 05:21:47;;;;;;;9.30;9.10;;;9.50;10.50;;;;;;5082246;28;20547;-79
2023/03/25 05:24:16;;;;;;;9.60;9.20;;;9.40;10.10;;;;;;5075808;28;20454;-82
2023/03/25 05:26:44;;;;;;;10.00;9.60;;;9.40;38.40;;;;;;5073151;28;20984;-81
2023/03/25 05:29:15;;;;;;;9.63;9.40;;;9.30;53.10;;;;;;5076199;28;20472;-83
2023/03/25 05:31:45;;;;;;;9.40;9.20;;;9.30;54.00;;;;;;5079275;28;20454;-80
2023/03/25 05:34:15;;;;;;;9.73;9.30;;;9.40;45.80;;;;;;5072040;28;20542;-81
2023/03/25 05:36:46;;;;;;;9.50;8.90;;;9.50;23.20;;;;;;5072855;28;20466;-81
2023/03/25 05:39:14;;;;;;;9.30;9.10;;;9.50;1.00;;;;;;5078796;28;22234;-79
2023/03/25 05:41:44;;;;;;;9.37;9.17;;;9.50;1.00;;;;;;5074287;28;20470;-83
2023/03/25 05:44:14;;;;;;;9.63;9.23;;;9.50;4.30;;;;;;5073274;28;20459;-81
2023/03/25 05:46:42;;;;;;;9.93;9.30;;;9.50;11.20;;;;;;5069337;28;20568;-81
2023/03/25 05:49:11;;;;;;;9.60;9.40;;;9.60;24.90;;;;;;5071358;28;20481;-81
2023/03/25 05:51:39;;;;;;;9.90;9.60;;;9.60;68.70;;;;;;5077355;28;20548;-82
2023/03/25 05:54:09;;;;;;;10.20;9.73;;;9.40;58.60;;;;;;5078229;28;21011;-82
2023/03/25 05:56:40;;;;;;;10.10;9.80;;;9.30;99.90;;;;;;5081390;28;20485;-83
2023/03/25 05:59:09;;;;;;;9.87;9.47;;;9.50;99.90;;;;;;5076795;28;20441;-82
2023/03/25 06:01:37;;;;;;;10.67;10.30;;;9.50;99.90;;;;;;5078391;28;20492;-82
2023/03/25 06:04:08;;;;;;;10.10;9.83;;;9.50;99.90;;;;;;5082174;28;20454;-85
2023/03/25 06:06:38;;;;;;;10.00;9.60;;;9.50;99.90;;;;;;5061068;28;20467;-80
2023/03/25 06:09:09;;;;;;;10.23;10.03;;;9.50;99.90;;;;;;5061121;28;20482;-84
2023/03/25 06:11:45;;;;;;;10.67;10.33;;;9.50;99.90;;;;;;5055918;28;20546;-80
2023/03/25 06:14:13;;;;;;;11.10;10.90;;;9.40;99.90;;;;;;5057675;28;20459;-83
2023/03/25 06:16:42;;;;;;;11.47;11.07;;;9.20;1.00;;;;;;5058752;28;20517;-81
2023/03/25 06:19:10;;;;;;;11.17;10.90;;;9.30;1.00;;;;;;5062619;28;20480;-85
2023/03/25 06:21:38;;;;;;;11.10;10.70;;;9.20;99.90;;;;;;5059729;28;20445;-80
2023/03/25 06:24:08;;;;;;;10.10;9.90;;;9.30;99.90;;;;;;5058215;28;20455;-84
2023/03/25 06:26:37;;;;;;;10.97;10.50;;;9.50;99.90;;;;;;5061234;28;20465;-84
2023/03/25 06:29:05;;;;;;;10.97;10.37;;;9.60;99.90;;;;;;5060039;28;20440;-82
2023/03/25 06:31:33;;;;;;;10.30;10.10;;;9.60;99.90;;;;;;5057587;28;20454;-83
2023/03/25 06:34:02;;;;;;;10.33;10.03;;;9.60;92.30;;;;;;5052432;28;21007;-80
2023/03/25 06:36:30;;;;;;;10.73;10.43;;;9.70;99.90;;;;;;5050265;28;21006;-83
2023/03/25 06:38:58;;;;;;;10.70;10.40;;;9.80;99.90;;;;;;5056978;28;20466;-83
2023/03/25 06:41:28;;;;;;;10.97;10.57;;;9.80;99.90;;;;;;5062552;28;21026;-84
2023/03/25 06:43:57;;;;;;;11.70;11.23;;;9.80;99.90;;;;;;5047333;28;20482;-83
2023/03/25 06:46:25;;;;;;;11.10;10.60;;;9.80;99.90;;;;;;5045431;28;20475;-83
2023/03/25 06:48:53;;;;;;;11.73;11.00;;;9.70;99.90;;;;;;5055570;28;20565;-82
2023/03/25 06:51:22;;;;;;;10.87;10.67;;;9.80;99.90;;;;;;5053495;28;20487;-83
2023/03/25 06:53:50;;;;;;;10.77;10.50;;;10.00;99.90;;;;;;5054995;28;20454;-77
2023/03/25 06:56:19;;;;;;;11.37;11.07;;;9.80;99.90;;;;;;5064533;28;20474;-78
2023/03/25 06:58:48;;;;;;;11.27;10.97;;;10.00;99.90;;;;;;5069537;28;20707;-80
2023/03/25 07:01:17;;;;;;;12.30;11.73;;;10.10;99.90;;;;;;5065056;28;20454;-78
2023/03/25 07:03:45;;;;;;;11.33;11.13;;;10.10;99.90;;;;;;5059480;28;20450;-80
2023/03/25 07:06:17;;;;;;;11.43;11.03;;;10.00;99.90;;;;;;5061489;28;20726;-79
2023/03/25 07:08:45;;;;;;;10.97;10.77;;;10.00;99.90;;;;;;5061430;28;20509;-79
2023/03/25 07:11:15;;;;;;;11.20;10.90;;;10.00;99.90;;;;;;5064043;28;21046;-81
2023/03/25 07:13:44;;;;;;;11.13;10.90;;;10.20;99.90;;;;;;5060329;28;21078;-79
2023/03/25 07:16:13;;;;;;;11.23;10.93;;;10.20;99.90;;;;;;5062704;28;20471;-78
2023/03/25 07:18:41;;;;;;;10.97;10.57;;;10.20;99.90;;;;;;5063390;28;20454;-79
2023/03/25 07:21:09;;;;;;;10.70;10.50;;;10.30;99.90;;;;;;5063011;28;20446;-78
2023/03/25 07:23:39;;;;;;;11.00;10.70;;;10.20;99.90;;;;;;5061532;28;20522;-77
2023/03/25 07:26:07;;;;;;;10.80;10.60;;;9.90;99.90;;;;;;5066608;28;20468;-80
2023/03/25 07:28:36;;;;;;;12.17;11.77;;;9.90;99.90;;;;;;5064796;28;20446;-79
2023/03/25 07:31:07;;;;;;;11.07;10.77;;;10.10;99.90;;;;;;5062095;28;20477;-77
2023/03/25 07:33:36;;;;;;;11.60;11.20;;;10.30;99.90;;;;;;5060331;28;20489;-76
2023/03/25 07:36:06;;;;;;;10.83;10.60;;;10.50;99.90;;;;;;5068858;28;20494;-78
2023/03/25 07:38:35;;;;;;;11.27;10.80;;;10.40;28.20;;;;;;5064737;28;20454;-75
2023/03/25 07:41:06;;;;;;;10.80;10.60;;;10.30;3.80;;;;;;5067413;28;20439;-76
2023/03/25 07:43:34;;;;;;;10.50;10.30;;;10.50;1.00;;;;;;5066160;28;20454;-77
2023/03/25 07:46:02;;;;;;;10.60;10.40;;;10.60;1.00;;;;;;5066254;28;20458;-77
2023/03/25 07:48:31;;;;;;;11.07;10.87;;;11.00;1.00;;;;;;5064348;28;21458;-80
2023/03/25 07:51:00;;;;;;;11.13;10.93;;;11.30;1.00;;;;;;5059489;28;20489;-80
2023/03/25 07:53:28;;;;;;;11.10;10.90;;;11.30;1.00;;;;;;5062485;28;20464;-77
2023/03/25 07:55:57;;;;;;;11.10;10.90;;;11.50;1.00;;;;;;5063898;28;20484;-77
2023/03/25 07:58:25;;;;;;;11.83;11.53;;;11.50;1.00;;;;;;5061514;28;20987;-76
2023/03/25 08:00:56;;;;;;;11.30;11.10;;;11.60;1.00;;;;;;5065517;28;20453;-79
2023/03/25 08:03:24;;;;;;;11.83;11.53;;;11.90;1.00;;;;;;5065709;28;20963;-76
2023/03/25 08:05:52;;;;;;;11.93;11.63;;;12.20;1.00;;;;;;5067807;28;20469;-76
2023/03/25 08:08:22;;;;;;;11.77;11.50;;;12.10;1.00;;;;;;5067717;28;20455;-77
2023/03/25 08:10:52;;;;;;;11.63;11.43;;;12.20;1.00;;;;;;5065975;28;20879;-79
2023/03/25 08:13:20;;;;;;;12.20;11.70;;;12.20;1.00;;;;;;5067828;28;20460;-79
2023/03/25 08:15:48;;;;;;;11.73;11.50;;;12.40;1.00;;;;;;5068437;28;21037;-79
2023/03/25 08:18:17;;;;;;;11.60;11.40;;;12.50;99.90;;;;;;5064831;28;20448;-77
2023/03/25 08:20:45;;;;;;;12.20;11.67;;;12.40;99.90;;;;;;5071834;28;20442;-79
2023/03/25 08:23:18;;;;;;;11.17;10.97;;;12.40;99.90;;;;;;5064275;28;20996;-77
2023/03/25 08:25:49;;;;;;;10.87;10.67;;;12.20;99.90;;;;;;5060093;28;20458;-78
2023/03/25 08:28:21;;;;;;;11.30;11.00;;;11.80;1.00;;;;;;5060592;28;20469;-77
2023/03/25 08:30:53;;;;;;;10.70;10.50;;;11.50;1.00;;;;;;5062438;28;20479;-79
2023/03/25 08:33:26;;;;;;;10.40;10.20;;;11.50;1.00;;;;;;5060011;28;20446;-79
2023/03/25 08:35:57;;;;;;;10.50;10.30;;;11.30;1.00;;;;;;5059890;28;20479;-81
2023/03/25 08:38:30;;;;;;;10.83;10.63;;;11.20;1.00;;;;;;5056183;28;20452;-82
2023/03/25 08:41:03;;;;;;;11.07;10.77;;;11.20;99.90;;;;;;5072311;28;20478;-80
2023/03/25 08:43:31;;;;;;;11.07;10.87;;;11.10;99.90;;;;;;5062165;28;20523;-80
2023/03/25 08:45:59;;;;;;;11.50;11.20;;;11.00;99.90;;;;;;5059028;28;20571;-79
2023/03/25 08:48:27;;;;;;;11.60;11.30;;;10.90;1.00;;;;;;5063273;28;20971;-82
2023/03/25 08:50:56;;;;;;;11.40;11.20;;;10.90;1.00;;;;;;5064697;28;20865;-83
2023/03/25 08:53:26;;;;;;;11.70;11.40;;;10.90;99.90;;;;;;5059647;28;20450;-82
2023/03/25 08:55:57;;;;;;;11.70;11.40;;;10.90;15.00;;;;;;5063726;28;20449;-78
2023/03/25 08:58:27;;;;;;;11.70;11.50;;;10.70;1.00;;;;;;5062864;28;20562;-80
2023/03/25 09:00:57;;;;;;;11.20;10.90;;;10.70;1.00;;;;;;5069097;28;20447;-76
2023/03/25 09:03:26;;;;;;;13.50;12.90;;;10.70;99.90;;;;;;5064028;28;20477;-80
2023/03/25 09:05:55;;;;;;;11.23;10.97;;;10.70;99.90;;;;;;5065301;28;21315;-79
2023/03/25 09:08:23;;;;;;;11.90;11.60;;;10.70;99.90;;;;;;5065633;28;20474;-82
2023/03/25 09:10:51;;;;;;;11.73;11.43;;;10.70;99.90;;;;;;5056001;28;20482;-79
2023/03/25 09:13:20;;;;;;;11.60;11.30;;;10.70;99.90;;;;;;5063348;28;20502;-77
2023/03/25 09:15:49;;;;;;;11.40;11.20;;;10.70;1.00;;;;;;5064536;28;20456;-78
2023/03/25 09:18:18;;;;;;;12.17;11.80;;;10.70;1.00;;;;;;5072423;28;20472;-81
2023/03/25 09:20:47;;;;;;;11.43;11.23;;;10.60;99.90;;;;;;5066085;28;20459;-81
2023/03/25 09:23:16;;;;;;;12.17;11.87;;;10.60;99.90;;;;;;5062814;28;20455;-81
2023/03/25 09:25:45;;;;;;;12.10;11.83;;;10.60;1.00;;;;;;5066074;28;20458;-81
2023/03/25 09:28:13;;;;;;;12.00;11.80;;;10.60;1.00;;;;;;5067983;28;20473;-82
2023/03/25 09:30:41;;;;;;;12.00;11.70;;;10.70;99.90;;;;;;5068425;28;20438;-80
2023/03/25 09:33:13;;;;;;;11.80;11.60;;;10.70;1.00;;;;;;5062107;28;20555;-80
2023/03/25 09:35:41;;;;;;;12.00;11.70;;;10.80;99.90;;;;;;5061580;28;20537;-82
2023/03/25 09:38:09;;;;;;;12.80;12.40;;;10.80;1.00;;;;;;5063750;28;21023;-82
2023/03/25 09:40:40;;;;;;;12.73;12.43;;;10.80;99.90;;;;;;5065704;28;20976;-82
2023/03/25 09:43:24;;;;;;;12.47;12.17;;;10.80;99.90;;;;;;5068562;28;20446;-81
2023/03/25 09:45:55;;;;;;;14.07;13.60;;;11.10;1.00;;;;;;5067261;28;20510;-82
2023/03/25 09:48:30;;;;;;;12.97;12.67;;;11.10;1.00;;;;;;5066841;28;20503;-81
2023/03/25 09:51:01;;;;;;;13.00;12.60;;;11.30;99.90;;;;;;5065016;28;20494;-81
2023/03/25 09:53:36;;;;;;;13.40;12.80;;;11.50;99.90;;;;;;5067086;28;20447;-78
2023/03/25 09:56:11;;;;;;;12.83;12.50;;;11.60;1.00;;;;;;5066410;28;20510;-81
2023/03/25 09:58:43;;;;;;;12.90;12.70;;;11.60;19.50;;;;;;5063338;28;20533;-82
2023/03/25 10:01:28;;;;;;;12.00;11.77;;;11.80;1.00;;;;;;5067736;28;20975;-82
2023/03/25 10:04:09;;;;;;;12.07;11.80;;;11.70;99.90;;;;;;5066347;28;21135;-80
2023/03/25 10:06:48;;;;;;;12.73;12.23;;;11.80;99.90;;;;;;5062583;28;21449;-80
2023/03/25 10:09:30;;;;;;;12.57;12.17;;;11.50;99.90;;;;;;5064930;28;20458;-81
2023/03/25 10:12:03;;;;;;;12.20;12.00;;;11.60;99.90;;;;;;5066029;28;20499;-81
2023/03/25 10:14:40;;;;;;;12.13;11.93;;;11.80;99.90;;;;;;5068067;28;21166;-81
2023/03/25 10:17:17;;;;;;;12.00;11.80;;;12.10;99.90;;;;;;5066446;28;20520;-80
2023/03/25 10:19:58;;;;;;;12.73;12.50;;;12.10;99.90;;;;;;5067449;28;20867;-80
2023/03/25 10:22:33;;;;;;;12.10;11.90;;;12.30;1.00;;;;;;5065903;28;20440;-77
2023/03/25 10:25:05;;;;;;;12.50;12.20;;;12.50;23.30;;;;;;5066672;28;20549;-81
2023/03/25 10:27:37;;;;;;;11.97;11.67;;;12.40;1.00;;;;;;5067236;28;20510;-81
2023/03/25 10:30:13;;;;;;;12.40;12.10;;;12.10;1.00;;;;;;5067593;28;20508;-81
2023/03/25 10:32:44;;;;;;;12.57;12.27;;;12.30;54.70;;;;;;5067564;28;20475;-81
2023/03/25 10:35:19;;;;;;;12.30;12.10;;;12.50;55.00;;;;;;5066295;28;20530;-79
2023/03/25 10:37:50;;;;;;;12.50;12.10;;;12.80;1.00;;;;;;5064531;28;20479;-82
2023/03/25 10:40:24;;;;;;;12.30;12.03;;;12.50;2.80;;;;;;5064095;28;20552;-79
2023/03/25 10:43:03;;;;;;;12.13;11.93;;;12.50;1.00;;;;;;5067112;28;20567;-80
2023/03/25 10:45:34;;;;;;;11.70;11.50;;;12.40;1.00;;;;;;5065671;28;20465;-77
2023/03/25 10:48:09;;;;;;;12.00;11.70;;;12.20;1.00;;;;;;5064016;28;20455;-82
2023/03/25 10:50:41;;;;;;;12.00;11.80;;;12.50;1.00;;;;;;5063110;28;20530;-81
2023/03/25 10:53:20;;;;;;;11.73;11.53;;;12.80;1.00;;;;;;5065854;28;20540;-79
2023/03/25 10:55:54;;;;;;;12.93;12.63;;;13.00;1.00;;;;;;5066734;28;20482;-79
2023/03/25 10:58:23;;;;;;;12.70;12.40;;;13.20;1.00;;;;;;5065350;28;21070;-82
2023/03/25 11:00:51;;;;;;;12.07;11.80;;;13.50;99.90;;;;;;5066166;28;20442;-81
2023/03/25 11:03:26;;;;;;;11.70;11.40;;;13.30;99.90;;;;;;5063777;28;20840;-81
2023/03/25 11:05:57;;;;;;;10.20;10.00;;;13.10;99.90;;;;;;5061499;28;20472;-80
2023/03/25 11:08:26;;;;;;;9.93;9.73;;;13.00;99.90;;;;;;5065854;28;20836;-78
2023/03/25 11:10:59;;;;;;;10.83;10.53;;;13.20;99.90;;;;;;5067116;28;20452;-81
2023/03/25 11:13:30;;;;;;;10.80;10.40;;;13.30;99.90;;;;;;5057963;28;20522;-80
2023/03/25 11:16:02;;;;;;;10.23;10.00;;;13.40;99.90;;;;;;5058375;28;20476;-84
2023/03/25 11:18:34;;;;;;;9.97;9.77;;;13.60;99.90;;;;;;5065385;28;20449;-78
2023/03/25 11:21:07;;;;;;;10.20;9.73;;;13.60;99.90;;;;;;5061078;28;20450;-82
2023/03/25 11:23:37;;;;;;;10.60;10.30;;;13.40;99.90;;;;;;5057780;28;20466;-81
2023/03/25 11:26:12;;;;;;;10.03;9.83;;;13.60;99.90;;;;;;5063766;28;20827;-80
2023/03/25 11:28:43;;;;;;;9.57;9.30;;;13.80;99.90;;;;;;5061709;28;20970;-78
2023/03/25 11:31:15;;;;;;;8.97;8.80;;;13.70;99.90;;;;;;5065495;28;20458;-79
2023/03/25 11:33:44;;;;;;;9.47;9.27;;;13.40;99.90;;;;;;5065443;28;20603;-79
2023/03/25 11:36:30;;;;;;;9.40;9.20;;;13.20;99.90;;;;;;5060529;28;20468;-80
2023/03/25 11:39:00;;;;;;;9.40;9.17;;;13.30;99.90;;;;;;5064319;28;20459;-79
2023/03/25 11:41:31;;;;;;;9.43;9.03;;;13.20;99.90;;;;;;5066076;28;20530;-80
2023/03/25 11:43:59;;;;;;;9.60;9.30;;;13.30;99.90;;;;;;5063357;28;20452;-82
2023/03/25 11:46:28;;;;;;;9.67;9.37;;;13.40;99.90;;;;;;5064685;28;20495;-82
2023/03/25 11:48:56;;;;;;;9.73;9.50;;;13.60;99.90;;;;;;5065271;28;20457;-79
2023/03/25 11:51:27;;;;;;;9.70;9.50;;;13.60;99.90;;;;;;5066048;28;20915;-80
2023/03/25 11:53:59;;;;;;;9.70;9.40;;;13.60;99.90;;;;;;5066297;28;20459;-80
2023/03/25 11:56:34;;;;;;;9.67;9.47;;;13.60;99.90;;;;;;5059062;28;20500;-79
2023/03/25 11:59:07;;;;;;;10.40;10.10;;;13.50;99.90;;;;;;5058769;28;20462;-79
2023/03/25 12:01:40;;;;;;;10.53;9.93;;;13.40;99.90;;;;;;5073629;28;20851;-81
2023/03/25 12:04:14;;;;;;;9.80;9.60;;;13.40;99.90;;;;;;5061850;28;20450;-81
2023/03/25 12:06:57;;;;;;;9.03;8.83;;;13.70;99.90;;;;;;5057331;28;20478;-79
2023/03/25 12:09:30;;;;;;;10.17;9.97;;;13.80;99.90;;;;;;5057094;28;20623;-78
2023/03/25 12:12:22;;;;;;;11.00;10.70;;;13.80;99.90;;;;;;5063269;28;20476;-78
2023/03/25 12:14:59;;;;;;;10.87;10.57;;;13.90;99.90;;;;;;5063295;28;20960;-77
2023/03/25 12:17:39;;;;;;;10.50;10.20;;;13.80;99.90;;;;;;5063986;28;21005;-80
2023/03/25 12:20:21;;;;;;;10.23;10.03;;;13.80;99.90;;;;;;5066758;28;20464;-79
2023/03/25 12:23:00;;;;;;;10.90;10.50;;;13.70;99.90;;;;;;5069028;28;20442;-80
2023/03/25 12:25:41;;;;;;;10.23;10.00;;;13.80;99.90;;;;;;5064505;28;20482;-80
2023/03/25 12:28:31;;;;;;;10.17;9.97;;;13.80;99.90;;;;;;5070001;28;20449;-79
2023/03/25 12:31:10;;;;;;;10.00;9.70;;;13.90;99.90;;;;;;5070198;28;20982;-81
2023/03/25 12:33:50;;;;;;;9.70;9.43;;;14.00;99.90;;;;;;5066611;28;20472;-79
2023/03/25 12:36:29;;;;;;;9.33;9.13;;;14.00;99.90;;;;;;5068499;28;20487;-76
2023/03/25 12:39:08;;;;;;;9.70;9.40;;;14.00;99.90;;;;;;5069603;28;20832;-78
2023/03/25 12:41:46;;;;;;;9.00;8.63;;;13.80;99.90;;;;;;5070237;28;20542;-78
2023/03/25 12:44:23;;;;;;;9.73;9.40;;;13.50;99.90;;;;;;5069160;28;20973;-78
2023/03/25 12:47:02;;;;;;;8.90;8.60;;;13.40;99.90;;;;;;5069961;28;20462;-80
2023/03/25 12:49:57;;;;;;;10.10;9.80;;;13.30;99.90;;;;;;5066180;28;20467;-78
2023/03/25 12:52:35;;;;;;;10.07;9.87;;;13.10;99.90;;;;;;5069123;28;20454;-78
2023/03/25 12:55:25;;;;;;;10.43;9.93;;;13.00;99.90;;;;;;5069905;28;20447;-79
2023/03/25 12:58:16;;;;;;;10.20;10.00;;;12.90;99.90;;;;;;5069825;28;20545;-78
2023/03/25 13:00:52;;;;;;;10.90;10.60;;;13.10;99.90;;;;;;5068971;28;20804;-79
2023/03/25 13:03:42;;;;;;;11.40;11.10;;;13.20;99.90;;;;;;5067933;28;20458;-79